Clackamas — WDF6614 — position and weather

sailwx.info

Track history (hours):
 
Tides and Currents Weather Stations Pressure Air Temp Water Temp Dewpoint Dewpoint Depression Visibility Wind Speed Wind Dir Waves Ship Positions

Clackamas

Owner: Port o Portland, Portland, OR. More information available from US FCC via Universal Licensing System and Coast Guard Vessel Documentation Center.

Last reported at 2016-May-23 22:28 UTC. Time now 2016-May-26 22:30 UTC.
Position N 45°34' W 122°43'.

MMSI: 367476049.

Date/timePositionNaut miles runAvg speedWind from/ knotsBaromVisibWave heightAir tempDewpointWater temp
2016-May-23 22:28N 45°34' W 122°43'3 3.7
2016-May-23 21:33N 45°36' W 122°47'3 2.7
2016-May-23 20:33N 45°38' W 122°45'1 1.1
2016-May-23 19:33N 45°38' W 122°43'1 0.6
2016-May-23 18:33N 45°37' W 122°43'0 0.2
2016-May-23 17:34N 45°37' W 122°43'2 1.7
2016-May-23 16:33N 45°38' W 122°44'3 3.2
2016-May-23 15:33N 45°35' W 122°46'2 2.4
2016-May-23 14:34N 45°34' W 122°43'  
2016-May-20 16:33N 45°34' W 122°43'  
Track history (hours):
 
Tides and Currents Weather Stations Pressure Air Temp Water Temp Dewpoint Dewpoint Depression Visibility Wind Speed Wind Dir Waves Ship Positions

Clackamas

Owner: Port o Portland, Portland, OR. More information available from US FCC via Universal Licensing System and Coast Guard Vessel Documentation Center.

Last reported at 2016-May-23 22:28 UTC. Time now 2016-May-26 22:30 UTC.
Position N 45°34' W 122°43'.

MMSI: 367476049.

Date/timePositionNaut miles runAvg speedWind from/ knotsBaromVisibWave heightAir tempDewpointWater temp
2016-May-23 22:28N 45°34' W 122°43'3 3.7
2016-May-23 21:33N 45°36' W 122°47'3 2.7
2016-May-23 20:33N 45°38' W 122°45'1 1.1
2016-May-23 19:33N 45°38' W 122°43'1 0.6
2016-May-23 18:33N 45°37' W 122°43'0 0.2
2016-May-23 17:34N 45°37' W 122°43'2 1.7
2016-May-23 16:33N 45°38' W 122°44'3 3.2
2016-May-23 15:33N 45°35' W 122°46'2 2.4
2016-May-23 14:34N 45°34' W 122°43'  
2016-May-20 16:33N 45°34' W 122°43'  

Dump ship's entire track history